createdAt,value
2023-01-08T00:04:31.701Z,4.85
2023-01-08T00:09:23.639Z,3.00
2023-01-08T00:14:17.860Z,5.03
2023-01-08T00:19:11.608Z,3.93
2023-01-08T00:24:04.890Z,4.93
2023-01-08T00:28:56.344Z,4.07
2023-01-08T00:33:49.874Z,2.50
2023-01-08T00:38:44.115Z,3.20
2023-01-08T00:43:36.175Z,3.13
2023-01-08T00:48:31.606Z,2.22
2023-01-08T00:53:26.117Z,2.80
2023-01-08T00:58:19.042Z,2.05
2023-01-08T01:03:10.551Z,1.50
2023-01-08T01:08:00.807Z,3.43
2023-01-08T01:12:53.977Z,2.10
2023-01-08T01:17:46.595Z,1.90
2023-01-08T01:22:38.441Z,1.48
2023-01-08T01:27:32.758Z,1.50
2023-01-08T01:32:26.141Z,1.63
2023-01-08T01:37:17.981Z,1.05
2023-01-08T01:42:35.603Z,1.85
2023-01-08T01:47:33.017Z,1.45
2023-01-08T01:52:25.902Z,1.50
2023-01-08T01:57:19.123Z,1.65
2023-01-08T02:02:12.845Z,3.05
2023-01-08T02:07:16.660Z,2.90
2023-01-08T02:12:25.567Z,1.70
2023-01-08T02:17:23.524Z,4.07
2023-01-08T02:22:30.459Z,4.27
2023-01-08T02:27:29.543Z,2.67
2023-01-08T02:32:21.387Z,1.97
2023-01-08T02:37:14.472Z,2.90
2023-01-08T02:42:15.432Z,2.55
2023-01-08T02:47:14.282Z,2.92
2023-01-08T02:52:09.648Z,3.55
2023-01-08T02:57:03.872Z,2.53
2023-01-08T03:01:58.734Z,1.83
2023-01-08T03:06:54.860Z,3.17
2023-01-08T03:11:55.437Z,3.38
2023-01-08T03:16:55.141Z,4.32
2023-01-08T03:21:49.720Z,4.18
2023-01-08T03:26:45.942Z,3.33
2023-01-08T03:31:37.802Z,3.53
2023-01-08T03:36:32.517Z,5.00
2023-01-08T03:41:27.351Z,3.60
2023-01-08T03:46:33.911Z,2.55
2023-01-08T03:51:24.420Z,3.90
2023-01-08T03:56:15.841Z,2.75
2023-01-08T04:01:06.900Z,2.87
2023-01-08T04:06:02.931Z,2.63
2023-01-08T04:11:02.086Z,2.70
2023-01-08T04:15:52.580Z,1.45
2023-01-08T04:20:43.959Z,3.90
2023-01-08T04:25:36.386Z,3.17
2023-01-08T04:30:30.017Z,2.60
2023-01-08T04:35:21.442Z,1.90
2023-01-08T04:40:16.360Z,2.33
2023-01-08T04:45:17.024Z,2.33
2023-01-08T04:50:11.665Z,3.80
2023-01-08T04:55:07.792Z,6.70
2023-01-08T05:00:03.957Z,4.15
2023-01-08T05:04:56.779Z,3.80
2023-01-08T05:09:49.041Z,3.22
2023-01-08T05:14:38.966Z,6.03
2023-01-08T05:19:30.441Z,4.38
2023-01-08T05:24:26.062Z,4.60
2023-01-08T05:29:19.387Z,3.43
2023-01-08T05:34:13.579Z,6.32
2023-01-08T05:39:04.417Z,4.60
2023-01-08T05:44:01.135Z,4.22
2023-01-08T05:48:55.441Z,3.78
2023-01-08T05:53:50.572Z,5.00
2023-01-08T05:58:43.134Z,5.13
2023-01-08T06:03:35.589Z,4.75
2023-01-08T06:08:25.481Z,2.87
2023-01-08T06:13:19.459Z,3.80
2023-01-08T06:18:15.621Z,4.30
2023-01-08T06:23:17.404Z,3.63
2023-01-08T06:28:09.405Z,7.03
2023-01-08T06:33:03.429Z,2.92
2023-01-08T06:37:58.035Z,3.22
2023-01-08T06:42:53.135Z,4.75
2023-01-08T06:47:45.402Z,6.53
2023-01-08T06:52:43.812Z,5.82
2023-01-08T06:57:35.654Z,7.43
2023-01-08T07:02:32.398Z,6.00
2023-01-08T07:07:25.820Z,6.17
2023-01-08T07:12:17.664Z,8.20
2023-01-08T07:17:14.584Z,7.78
2023-01-08T07:22:16.475Z,6.83
2023-01-08T07:27:20.740Z,4.57
2023-01-08T07:32:10.703Z,6.25
2023-01-08T07:37:00.681Z,5.07
2023-01-08T07:42:00.206Z,5.15
2023-01-08T07:47:10.820Z,6.27
2023-01-08T07:52:03.315Z,6.67
2023-01-08T07:56:58.113Z,4.10
2023-01-08T08:01:51.992Z,6.22
2023-01-08T08:06:44.807Z,7.00
2023-01-08T08:11:39.580Z,6.43
2023-01-08T08:16:34.821Z,6.75
2023-01-08T08:21:25.610Z,6.35
2023-01-08T08:26:20.785Z,6.07
2023-01-08T08:31:18.115Z,6.05
2023-01-08T08:36:15.323Z,7.20
2023-01-08T08:41:11.009Z,6.55
2023-01-08T08:46:05.533Z,8.05
2023-01-08T08:50:56.822Z,7.45
2023-01-08T08:55:51.413Z,8.77
2023-01-08T09:00:45.416Z,7.90
2023-01-08T09:05:39.564Z,7.90
2023-01-08T09:10:31.671Z,5.60
2023-01-08T09:15:27.179Z,6.55
2023-01-08T09:20:22.549Z,6.70
2023-01-08T09:25:22.536Z,7.45
2023-01-08T09:30:15.410Z,4.25
2023-01-08T09:35:19.006Z,7.55
2023-01-08T09:40:17.592Z,6.03
2023-01-08T09:45:16.223Z,5.22
2023-01-08T09:50:15.349Z,7.23
2023-01-08T09:55:09.802Z,6.88
2023-01-08T10:00:05.601Z,8.02
2023-01-08T10:05:07.994Z,7.05
2023-01-08T10:10:00.979Z,5.93
2023-01-08T10:14:54.344Z,4.65
2023-01-08T10:19:45.140Z,6.45
2023-01-08T10:24:43.693Z,5.00
2023-01-08T10:29:42.334Z,4.65
2023-01-08T10:34:45.009Z,6.97
2023-01-08T10:39:39.395Z,4.70
2023-01-08T10:44:39.574Z,4.22
2023-01-08T10:49:42.131Z,3.10
2023-01-08T10:54:49.756Z,3.05
2023-01-08T10:59:48.966Z,3.10
2023-01-08T11:04:44.676Z,4.90
2023-01-08T11:09:38.220Z,4.17
2023-01-08T11:14:34.911Z,2.72
2023-01-08T11:19:34.288Z,1.98
2023-01-08T11:24:32.552Z,1.88
2023-01-08T11:29:48.077Z,3.03
2023-01-08T11:35:04.760Z,1.85
2023-01-08T11:40:05.502Z,2.20
2023-01-08T11:45:17.954Z,2.10
2023-01-08T11:50:27.714Z,1.10
2023-01-08T11:55:35.158Z,2.15
2023-01-08T12:00:49.293Z,1.67
2023-01-08T12:05:53.181Z,1.08
2023-01-08T12:16:16.799Z,5.00
2023-01-08T12:21:22.996Z,2.15
2023-01-08T12:26:33.003Z,2.55
2023-01-08T12:32:09.959Z,4.35
2023-01-08T12:37:15.597Z,3.00
2023-01-08T12:42:25.769Z,1.77
2023-01-08T12:47:24.119Z,1.52
2023-01-08T12:52:25.345Z,1.35
2023-01-08T12:57:27.663Z,3.42
2023-01-08T13:02:42.948Z,4.57
2023-01-08T13:07:48.639Z,2.67
2023-01-08T13:12:44.921Z,4.05
2023-01-08T13:17:44.997Z,1.88
2023-01-08T13:22:54.715Z,2.35
2023-01-08T13:27:52.278Z,3.05
2023-01-08T13:32:48.068Z,2.30
2023-01-08T13:37:53.435Z,2.25
2023-01-08T13:42:46.649Z,3.22
2023-01-08T13:47:47.935Z,2.15
2023-01-08T13:53:02.578Z,5.03
2023-01-08T13:58:02.121Z,2.92
2023-01-08T14:02:55.688Z,3.25
2023-01-08T14:07:53.337Z,1.95
2023-01-08T14:12:46.409Z,2.67
2023-01-08T14:17:51.816Z,2.60
2023-01-08T14:28:05.368Z,4.20
2023-01-08T14:33:06.219Z,2.47
2023-01-08T14:38:18.117Z,4.70
2023-01-08T14:43:42.422Z,3.40
2023-01-08T14:48:43.853Z,3.95
2023-01-08T14:53:40.762Z,4.80
2023-01-08T14:58:45.640Z,2.85
2023-01-08T15:03:40.563Z,2.20
2023-01-08T15:08:39.553Z,4.20
2023-01-08T15:13:40.165Z,3.42
2023-01-08T15:18:34.675Z,3.28
2023-01-08T15:23:38.864Z,2.25
2023-01-08T15:28:32.395Z,3.50
2023-01-08T15:33:34.751Z,2.73
2023-01-08T15:38:29.439Z,3.30
2023-01-08T15:43:23.270Z,3.53
2023-01-08T15:48:23.606Z,2.47
2023-01-08T15:53:29.691Z,3.27
2023-01-08T15:58:30.664Z,5.35
2023-01-08T16:03:28.424Z,3.17
2023-01-08T16:08:28.192Z,4.32
2023-01-08T16:13:27.102Z,2.83
2023-01-08T16:18:30.385Z,2.95
2023-01-08T16:23:40.200Z,4.60
2023-01-08T16:28:37.389Z,5.20
2023-01-08T16:33:32.738Z,4.20
2023-01-08T16:38:33.407Z,4.78
2023-01-08T16:43:30.880Z,4.90
2023-01-08T16:48:27.899Z,5.47
2023-01-08T16:53:21.948Z,4.20
2023-01-08T16:58:34.161Z,3.97
2023-01-08T17:03:25.225Z,2.83
2023-01-08T17:08:20.923Z,1.95
2023-01-08T17:13:26.855Z,2.70
2023-01-08T17:18:24.471Z,3.67
2023-01-08T17:23:17.919Z,2.37
2023-01-08T17:28:09.261Z,5.05
2023-01-08T17:33:08.481Z,5.28
2023-01-08T17:38:00.153Z,3.08
2023-01-08T17:42:51.405Z,2.03
2023-01-08T17:47:43.322Z,4.30
2023-01-08T17:52:40.011Z,5.07
2023-01-08T17:57:33.752Z,3.85
2023-01-08T18:02:44.891Z,2.47
2023-01-08T18:07:39.781Z,3.95
2023-01-08T18:12:43.039Z,2.57
2023-01-08T18:17:54.373Z,4.32
2023-01-08T18:22:53.850Z,3.97
2023-01-08T18:27:43.733Z,3.40
2023-01-08T18:32:40.095Z,4.50
2023-01-08T18:37:47.210Z,2.83
2023-01-08T18:42:44.859Z,3.88
2023-01-08T18:47:43.434Z,3.38
2023-01-08T18:52:38.541Z,2.40
2023-01-08T18:57:39.883Z,2.47
2023-01-08T19:02:35.163Z,2.30
2023-01-08T19:07:30.688Z,3.42
2023-01-08T19:12:27.562Z,2.80
2023-01-08T19:17:25.606Z,3.22
2023-01-08T19:22:22.589Z,3.90
2023-01-08T19:27:18.282Z,3.53
2023-01-08T19:32:14.103Z,2.10
2023-01-08T19:37:18.967Z,4.05
2023-01-08T19:42:30.161Z,1.30
2023-01-08T19:47:28.525Z,3.00
2023-01-08T19:52:21.334Z,4.00
2023-01-08T19:57:17.110Z,7.30
2023-01-08T20:02:09.627Z,2.73
2023-01-08T20:12:23.713Z,3.50
2023-01-08T20:17:19.419Z,2.33
2023-01-08T20:22:16.017Z,2.88
2023-01-08T20:27:07.913Z,2.50
2023-01-08T20:32:06.269Z,4.38
2023-01-08T20:37:00.955Z,3.07
2023-01-08T20:42:03.991Z,3.80
2023-01-08T20:46:55.987Z,2.75
2023-01-08T20:51:59.216Z,4.43
2023-01-08T20:56:59.973Z,3.13
2023-01-08T21:01:58.451Z,4.13
2023-01-08T21:06:56.607Z,5.47
2023-01-08T21:11:53.305Z,3.70
2023-01-08T21:16:50.803Z,3.42
2023-01-08T21:21:46.094Z,2.00
2023-01-08T21:26:47.073Z,2.85
2023-01-08T21:31:41.973Z,4.60
2023-01-08T21:36:37.220Z,2.90
2023-01-08T21:41:46.990Z,4.50
2023-01-08T21:46:46.292Z,3.05
2023-01-08T21:51:56.815Z,3.03
2023-01-08T21:56:47.614Z,2.97
2023-01-08T22:01:40.135Z,1.00
2023-01-08T22:06:36.195Z,1.60
2023-01-08T22:11:31.940Z,0.80
2023-01-08T22:16:26.932Z,2.90
2023-01-08T22:21:22.799Z,2.20
2023-01-08T22:26:18.533Z,1.50
2023-01-08T22:31:15.787Z,0.90
2023-01-08T22:36:07.541Z,2.30
2023-01-08T22:40:59.261Z,1.45
2023-01-08T22:45:58.303Z,1.30
2023-01-08T22:50:53.970Z,0.93
2023-01-08T22:55:50.076Z,1.23
2023-01-08T23:00:42.276Z,0.80
2023-01-08T23:05:47.273Z,0.70
2023-01-08T23:10:38.673Z,0.90
2023-01-08T23:15:35.353Z,1.42
2023-01-08T23:20:33.169Z,1.40
2023-01-08T23:25:38.894Z,0.77
2023-01-08T23:30:33.332Z,1.50
2023-01-08T23:35:24.245Z,0.88
2023-01-08T23:40:22.958Z,1.57
2023-01-08T23:45:31.247Z,1.47
2023-01-08T23:50:27.088Z,1.48
2023-01-08T23:55:24.493Z,1.83
